sensor_id;sensor_type;location;lat;lon;timestamp;pressure;altitude;pressure_sealevel;temperature;humidity
65666;BME280;52365;47.464;18.976;2023-01-30T00:00:27;100354.78;;;-1.52;63.81
65666;BME280;52365;47.464;18.976;2023-01-30T00:01:04;100351.31;;;-1.56;64.04
65666;BME280;52365;47.464;18.976;2023-01-30T00:01:41;100358.06;;;-1.58;64.15
65666;BME280;52365;47.464;18.976;2023-01-30T00:02:17;100356.56;;;-1.59;64.31
65666;BME280;52365;47.464;18.976;2023-01-30T00:02:53;100357.47;;;-1.48;64.32
65666;BME280;52365;47.464;18.976;2023-01-30T00:03:30;100355.28;;;-1.42;64.02
65666;BME280;52365;47.464;18.976;2023-01-30T00:04:06;100353.28;;;-1.53;64.26
65666;BME280;52365;47.464;18.976;2023-01-30T00:04:42;100357.81;;;-1.49;64.35
65666;BME280;52365;47.464;18.976;2023-01-30T00:05:18;100360.38;;;-1.57;64.41
65666;BME280;52365;47.464;18.976;2023-01-30T00:05:54;100352.41;;;-1.60;64.49
65666;BME280;52365;47.464;18.976;2023-01-30T00:06:30;100344.78;;;-1.65;64.66
65666;BME280;52365;47.464;18.976;2023-01-30T00:07:06;100345.53;;;-1.65;64.75
65666;BME280;52365;47.464;18.976;2023-01-30T00:07:42;100351.59;;;-1.64;64.86
65666;BME280;52365;47.464;18.976;2023-01-30T00:08:19;100352.25;;;-1.71;64.99
65666;BME280;52365;47.464;18.976;2023-01-30T00:08:55;100347.72;;;-1.70;65.13
65666;BME280;52365;47.464;18.976;2023-01-30T00:09:31;100343.78;;;-1.80;65.37
65666;BME280;52365;47.464;18.976;2023-01-30T00:10:08;100349.03;;;-1.84;65.52
65666;BME280;52365;47.464;18.976;2023-01-30T00:10:44;100340.81;;;-1.79;65.63
65666;BME280;52365;47.464;18.976;2023-01-30T00:11:21;100348.25;;;-1.61;65.41
65666;BME280;52365;47.464;18.976;2023-01-30T00:11:57;100353.53;;;-1.61;65.00
65666;BME280;52365;47.464;18.976;2023-01-30T00:12:33;100348.25;;;-1.61;64.96
65666;BME280;52365;47.464;18.976;2023-01-30T00:13:10;100351.38;;;-1.52;64.87
65666;BME280;52365;47.464;18.976;2023-01-30T00:13:47;100346.03;;;-1.29;64.35
65666;BME280;52365;47.464;18.976;2023-01-30T00:14:23;100350.72;;;-1.15;63.79
65666;BME280;52365;47.464;18.976;2023-01-30T00:14:59;100340.62;;;-1.06;63.36
65666;BME280;52365;47.464;18.976;2023-01-30T00:15:36;100335.81;;;-1.00;63.08
65666;BME280;52365;47.464;18.976;2023-01-30T00:16:12;100337.59;;;-1.08;62.81
65666;BME280;52365;47.464;18.976;2023-01-30T00:16:48;100347.00;;;-1.11;62.92
65666;BME280;52365;47.464;18.976;2023-01-30T00:17:24;100340.41;;;-0.94;62.77
65666;BME280;52365;47.464;18.976;2023-01-30T00:18:00;100346.13;;;-0.92;62.56
65666;BME280;52365;47.464;18.976;2023-01-30T00:18:37;100351.41;;;-0.92;62.39
65666;BME280;52365;47.464;18.976;2023-01-30T00:19:13;100348.34;;;-0.94;62.45
65666;BME280;52365;47.464;18.976;2023-01-30T00:19:50;100342.66;;;-0.96;62.42
65666;BME280;52365;47.464;18.976;2023-01-30T00:20:26;100343.00;;;-0.97;62.60
65666;BME280;52365;47.464;18.976;2023-01-30T00:21:05;100344.91;;;-0.98;62.66
65666;BME280;52365;47.464;18.976;2023-01-30T00:21:41;100347.94;;;-0.96;62.47
65666;BME280;52365;47.464;18.976;2023-01-30T00:22:17;100347.16;;;-1.00;62.75
65666;BME280;52365;47.464;18.976;2023-01-30T00:22:53;100347.06;;;-1.07;62.67
65666;BME280;52365;47.464;18.976;2023-01-30T00:23:33;100346.25;;;-1.11;62.89
65666;BME280;52365;47.464;18.976;2023-01-30T00:24:09;100343.25;;;-1.10;62.95
65666;BME280;52365;47.464;18.976;2023-01-30T00:24:45;100346.34;;;-1.04;62.89
65666;BME280;52365;47.464;18.976;2023-01-30T00:25:21;100351.69;;;-0.97;62.64
65666;BME280;52365;47.464;18.976;2023-01-30T00:25:57;100349.37;;;-1.02;62.60
65666;BME280;52365;47.464;18.976;2023-01-30T00:26:34;100347.19;;;-0.96;62.69
65666;BME280;52365;47.464;18.976;2023-01-30T00:27:10;100353.16;;;-1.03;62.72
65666;BME280;52365;47.464;18.976;2023-01-30T00:27:46;100344.41;;;-1.07;62.95
65666;BME280;52365;47.464;18.976;2023-01-30T00:28:22;100345.09;;;-1.14;63.00
65666;BME280;52365;47.464;18.976;2023-01-30T00:28:58;100349.16;;;-1.20;63.33
65666;BME280;52365;47.464;18.976;2023-01-30T00:29:34;100342.31;;;-1.24;63.57
65666;BME280;52365;47.464;18.976;2023-01-30T00:30:11;100347.59;;;-1.24;63.75
65666;BME280;52365;47.464;18.976;2023-01-30T00:30:48;100357.19;;;-1.13;63.75
65666;BME280;52365;47.464;18.976;2023-01-30T00:31:26;100351.16;;;-1.13;63.42
65666;BME280;52365;47.464;18.976;2023-01-30T00:32:02;100349.31;;;-1.06;63.27
65666;BME280;52365;47.464;18.976;2023-01-30T00:32:38;100339.88;;;-1.07;63.24
65666;BME280;52365;47.464;18.976;2023-01-30T00:33:14;100344.69;;;-1.16;63.22
65666;BME280;52365;47.464;18.976;2023-01-30T00:33:50;100348.28;;;-1.28;63.51
65666;BME280;52365;47.464;18.976;2023-01-30T00:34:26;100346.06;;;-1.25;63.76
65666;BME280;52365;47.464;18.976;2023-01-30T00:35:03;100336.69;;;-1.19;63.71
65666;BME280;52365;47.464;18.976;2023-01-30T00:35:43;100337.91;;;-1.13;63.71
65666;BME280;52365;47.464;18.976;2023-01-30T00:36:19;100344.56;;;-0.96;63.49
65666;BME280;52365;47.464;18.976;2023-01-30T00:36:55;100341.97;;;-0.89;63.17
65666;BME280;52365;47.464;18.976;2023-01-30T00:37:31;100340.50;;;-0.87;62.95
65666;BME280;52365;47.464;18.976;2023-01-30T00:38:07;100341.53;;;-0.95;62.81
65666;BME280;52365;47.464;18.976;2023-01-30T00:38:43;100338.09;;;-0.99;62.98
65666;BME280;52365;47.464;18.976;2023-01-30T00:39:19;100331.91;;;-1.10;63.11
65666;BME280;52365;47.464;18.976;2023-01-30T00:39:55;100335.66;;;-1.11;63.30
65666;BME280;52365;47.464;18.976;2023-01-30T00:40:31;100338.41;;;-1.04;63.26
65666;BME280;52365;47.464;18.976;2023-01-30T00:41:07;100333.72;;;-1.14;63.39
65666;BME280;52365;47.464;18.976;2023-01-30T00:41:45;100333.44;;;-1.09;63.34
65666;BME280;52365;47.464;18.976;2023-01-30T00:42:39;100335.31;;;-1.10;63.32
65666;BME280;52365;47.464;18.976;2023-01-30T00:43:34;100334.16;;;-1.12;63.45
65666;BME280;52365;47.464;18.976;2023-01-30T00:44:29;100342.09;;;-1.12;63.40
65666;BME280;52365;47.464;18.976;2023-01-30T00:45:23;100339.50;;;-1.09;63.57
65666;BME280;52365;47.464;18.976;2023-01-30T00:46:28;100335.19;;;-1.20;63.58
65666;BME280;52365;47.464;18.976;2023-01-30T00:47:24;100339.53;;;-1.05;63.43
65666;BME280;52365;47.464;18.976;2023-01-30T00:48:00;100336.78;;;-1.12;63.40
65666;BME280;52365;47.464;18.976;2023-01-30T00:48:36;100341.66;;;-1.14;63.39
65666;BME280;52365;47.464;18.976;2023-01-30T00:49:12;100333.59;;;-1.25;63.92
65666;BME280;52365;47.464;18.976;2023-01-30T00:49:48;100337.44;;;-1.22;63.85
65666;BME280;52365;47.464;18.976;2023-01-30T00:50:24;100327.19;;;-1.24;63.93
65666;BME280;52365;47.464;18.976;2023-01-30T00:51:17;100337.81;;;-1.20;63.94
65666;BME280;52365;47.464;18.976;2023-01-30T00:51:53;100330.97;;;-1.25;64.24
65666;BME280;52365;47.464;18.976;2023-01-30T00:52:29;100330.91;;;-1.29;64.18
65666;BME280;52365;47.464;18.976;2023-01-30T00:53:05;100340.78;;;-1.25;64.31
65666;BME280;52365;47.464;18.976;2023-01-30T00:53:41;100324.09;;;-1.30;64.42
65666;BME280;52365;47.464;18.976;2023-01-30T00:54:17;100332.03;;;-1.30;64.59
65666;BME280;52365;47.464;18.976;2023-01-30T00:54:53;100325.84;;;-1.41;64.69
65666;BME280;52365;47.464;18.976;2023-01-30T00:55:29;100325.81;;;-1.44;64.98
65666;BME280;52365;47.464;18.976;2023-01-30T00:56:05;100326.16;;;-1.46;65.15
65666;BME280;52365;47.464;18.976;2023-01-30T00:56:41;100323.50;;;-1.46;65.11
65666;BME280;52365;47.464;18.976;2023-01-30T00:57:17;100325.19;;;-1.34;65.18
65666;BME280;52365;47.464;18.976;2023-01-30T00:57:53;100324.47;;;-1.31;64.87
65666;BME280;52365;47.464;18.976;2023-01-30T00:58:29;100331.59;;;-1.35;64.98
65666;BME280;52365;47.464;18.976;2023-01-30T00:59:05;100314.97;;;-1.36;64.90
65666;BME280;52365;47.464;18.976;2023-01-30T00:59:41;100320.50;;;-1.14;64.68
65666;BME280;52365;47.464;18.976;2023-01-30T01:00:18;100326.59;;;-1.14;64.37
65666;BME280;52365;47.464;18.976;2023-01-30T01:00:55;100322.59;;;-1.31;64.50
65666;BME280;52365;47.464;18.976;2023-01-30T01:01:31;100319.41;;;-1.43;64.78
65666;BME280;52365;47.464;18.976;2023-01-30T01:02:07;100326.22;;;-1.42;65.08
65666;BME280;52365;47.464;18.976;2023-01-30T01:02:43;100322.03;;;-1.43;65.13
65666;BME280;52365;47.464;18.976;2023-01-30T01:03:20;100317.56;;;-1.39;65.35
65666;BME280;52365;47.464;18.976;2023-01-30T01:03:56;100307.44;;;-1.34;65.12
65666;BME280;52365;47.464;18.976;2023-01-30T01:04:32;100318.37;;;-1.35;65.09
65666;BME280;52365;47.464;18.976;2023-01-30T01:05:17;100318.97;;;-1.45;65.13
65666;BME280;52365;47.464;18.976;2023-01-30T01:05:53;100314.84;;;-1.73;66.05
65666;BME280;52365;47.464;18.976;2023-01-30T01:06:29;100315.50;;;-1.53;66.36
65666;BME280;52365;47.464;18.976;2023-01-30T01:07:06;100313.31;;;-1.17;65.48
65666;BME280;52365;47.464;18.976;2023-01-30T01:07:42;100309.72;;;-1.32;65.17
65666;BME280;52365;47.464;18.976;2023-01-30T01:08:18;100319.91;;;-1.34;65.18
65666;BME280;52365;47.464;18.976;2023-01-30T01:08:54;100319.03;;;-1.42;65.34
65666;BME280;52365;47.464;18.976;2023-01-30T01:09:30;100316.81;;;-1.40;65.43
65666;BME280;52365;47.464;18.976;2023-01-30T01:10:07;100310.72;;;-1.44;65.41
65666;BME280;52365;47.464;18.976;2023-01-30T01:10:43;100315.50;;;-1.53;65.64
65666;BME280;52365;47.464;18.976;2023-01-30T01:11:19;100310.66;;;-1.47;65.56
65666;BME280;52365;47.464;18.976;2023-01-30T01:12:02;100307.84;;;-1.62;65.72
65666;BME280;52365;47.464;18.976;2023-01-30T01:12:38;100312.69;;;-1.64;65.75
65666;BME280;52365;47.464;18.976;2023-01-30T01:13:14;100308.47;;;-1.68;66.22
65666;BME280;52365;47.464;18.976;2023-01-30T01:13:54;100305.34;;;-1.78;66.57
65666;BME280;52365;47.464;18.976;2023-01-30T01:14:31;100307.69;;;-1.42;65.75
65666;BME280;52365;47.464;18.976;2023-01-30T01:15:08;100298.75;;;-1.34;65.04
65666;BME280;52365;47.464;18.976;2023-01-30T01:15:44;100303.44;;;-1.20;64.36
65666;BME280;52365;47.464;18.976;2023-01-30T01:16:20;100301.75;;;-1.02;63.95
65666;BME280;52365;47.464;18.976;2023-01-30T01:16:57;100295.38;;;-0.97;63.43
65666;BME280;52365;47.464;18.976;2023-01-30T01:17:33;100300.84;;;-0.83;63.24
65666;BME280;52365;47.464;18.976;2023-01-30T01:18:09;100306.19;;;-1.13;63.66
65666;BME280;52365;47.464;18.976;2023-01-30T01:18:45;100301.22;;;-1.15;63.97
65666;BME280;52365;47.464;18.976;2023-01-30T01:19:21;100294.87;;;-1.10;64.17
65666;BME280;52365;47.464;18.976;2023-01-30T01:19:57;100300.53;;;-1.12;64.15
65666;BME280;52365;47.464;18.976;2023-01-30T01:20:33;100301.78;;;-1.32;64.47
65666;BME280;52365;47.464;18.976;2023-01-30T01:21:09;100300.03;;;-1.51;65.10
65666;BME280;52365;47.464;18.976;2023-01-30T01:21:46;100294.34;;;-1.53;65.75
65666;BME280;52365;47.464;18.976;2023-01-30T01:22:22;100298.00;;;-1.35;65.54
65666;BME280;52365;47.464;18.976;2023-01-30T01:22:58;100295.22;;;-1.12;65.04
65666;BME280;52365;47.464;18.976;2023-01-30T01:23:34;100295.88;;;-1.22;64.91
65666;BME280;52365;47.464;18.976;2023-01-30T01:24:12;100289.50;;;-1.17;64.80
65666;BME280;52365;47.464;18.976;2023-01-30T01:24:48;100295.66;;;-1.10;64.62
65666;BME280;52365;47.464;18.976;2023-01-30T01:25:24;100295.66;;;-1.06;64.20
65666;BME280;52365;47.464;18.976;2023-01-30T01:26:01;100294.63;;;-0.98;63.96
65666;BME280;52365;47.464;18.976;2023-01-30T01:26:37;100296.44;;;-1.06;64.04
65666;BME280;52365;47.464;18.976;2023-01-30T01:27:13;100297.84;;;-1.15;64.35
65666;BME280;52365;47.464;18.976;2023-01-30T01:27:50;100288.44;;;-1.13;64.54
65666;BME280;52365;47.464;18.976;2023-01-30T01:28:26;100290.38;;;-1.06;64.16
65666;BME280;52365;47.464;18.976;2023-01-30T01:29:02;100293.03;;;-1.06;64.02
65666;BME280;52365;47.464;18.976;2023-01-30T01:29:38;100291.03;;;-1.16;64.17
65666;BME280;52365;47.464;18.976;2023-01-30T01:30:14;100287.72;;;-1.06;64.32
65666;BME280;52365;47.464;18.976;2023-01-30T01:30:50;100292.59;;;-1.42;64.89
65666;BME280;52365;47.464;18.976;2023-01-30T01:31:27;100291.75;;;-1.19;64.84
65666;BME280;52365;47.464;18.976;2023-01-30T01:32:03;100291.06;;;-1.13;64.24
65666;BME280;52365;47.464;18.976;2023-01-30T01:32:39;100287.44;;;-0.97;64.11
65666;BME280;52365;47.464;18.976;2023-01-30T01:33:15;100281.44;;;-0.94;63.63
65666;BME280;52365;47.464;18.976;2023-01-30T01:33:51;100290.75;;;-0.70;63.35
65666;BME280;52365;47.464;18.976;2023-01-30T01:34:27;100291.06;;;-0.76;62.76
65666;BME280;52365;47.464;18.976;2023-01-30T01:35:04;100284.13;;;-1.24;63.45
65666;BME280;52365;47.464;18.976;2023-01-30T01:35:40;100287.19;;;-1.22;64.22
65666;BME280;52365;47.464;18.976;2023-01-30T01:36:17;100282.44;;;-1.10;64.22
65666;BME280;52365;47.464;18.976;2023-01-30T01:36:53;100286.25;;;-1.04;63.79
65666;BME280;52365;47.464;18.976;2023-01-30T01:37:29;100283.72;;;-0.93;63.69
65666;BME280;52365;47.464;18.976;2023-01-30T01:38:05;100283.81;;;-0.86;63.05
65666;BME280;52365;47.464;18.976;2023-01-30T01:38:41;100286.50;;;-1.16;63.68
65666;BME280;52365;47.464;18.976;2023-01-30T01:39:18;100283.47;;;-1.14;64.14
65666;BME280;52365;47.464;18.976;2023-01-30T01:39:54;100283.84;;;-1.16;64.23
65666;BME280;52365;47.464;18.976;2023-01-30T01:40:49;100285.69;;;-1.20;64.19
65666;BME280;52365;47.464;18.976;2023-01-30T01:41:37;100280.72;;;-1.25;64.42
65666;BME280;52365;47.464;18.976;2023-01-30T01:42:13;100282.19;;;-1.28;64.54
65666;BME280;52365;47.464;18.976;2023-01-30T01:42:49;100281.09;;;-1.27;64.55
65666;BME280;52365;47.464;18.976;2023-01-30T01:43:25;100278.78;;;-1.28;64.48
65666;BME280;52365;47.464;18.976;2023-01-30T01:44:09;100278.16;;;-1.18;64.48
65666;BME280;52365;47.464;18.976;2023-01-30T01:45:47;100272.94;;;-1.11;63.94
65666;BME280;52365;47.464;18.976;2023-01-30T01:46:27;100280.34;;;-1.23;63.93
65666;BME280;52365;47.464;18.976;2023-01-30T01:47:07;100276.41;;;-1.37;64.43
65666;BME280;52365;47.464;18.976;2023-01-30T01:47:59;100267.25;;;-1.46;64.77
65666;BME280;52365;47.464;18.976;2023-01-30T01:48:40;100277.16;;;-1.40;64.90
65666;BME280;52365;47.464;18.976;2023-01-30T01:49:26;100273.69;;;-1.10;64.64
65666;BME280;52365;47.464;18.976;2023-01-30T01:50:04;100267.03;;;-1.00;63.58
65666;BME280;52365;47.464;18.976;2023-01-30T01:50:45;100266.19;;;-1.08;63.61
65666;BME280;52365;47.464;18.976;2023-01-30T01:52:25;100263.69;;;-1.28;64.00
65666;BME280;52365;47.464;18.976;2023-01-30T01:52:36;100271.37;;;-1.49;64.74
65666;BME280;52365;47.464;18.976;2023-01-30T01:53:14;100263.75;;;-1.54;65.16
65666;BME280;52365;47.464;18.976;2023-01-30T01:54:05;100260.03;;;-1.49;65.32
65666;BME280;52365;47.464;18.976;2023-01-30T01:54:47;100261.28;;;-1.40;65.29
65666;BME280;52365;47.464;18.976;2023-01-30T01:55:25;100262.91;;;-1.32;65.14
65666;BME280;52365;47.464;18.976;2023-01-30T01:56:03;100256.12;;;-1.29;64.81
65666;BME280;52365;47.464;18.976;2023-01-30T01:56:43;100255.38;;;-1.30;64.72
65666;BME280;52365;47.464;18.976;2023-01-30T01:57:29;100253.91;;;-1.23;64.44
65666;BME280;52365;47.464;18.976;2023-01-30T01:58:09;100257.00;;;-1.18;64.16
65666;BME280;52365;47.464;18.976;2023-01-30T01:58:51;100246.63;;;-1.00;63.82
65666;BME280;52365;47.464;18.976;2023-01-30T01:59:32;100258.56;;;-1.13;63.60
65666;BME280;52365;47.464;18.976;2023-01-30T02:00:10;100247.16;;;-1.21;63.93
65666;BME280;52365;47.464;18.976;2023-01-30T02:00:47;100247.72;;;-1.38;64.40
65666;BME280;52365;47.464;18.976;2023-01-30T02:01:24;100245.34;;;-1.47;64.78
65666;BME280;52365;47.464;18.976;2023-01-30T02:02:05;100249.91;;;-1.44;65.01
65666;BME280;52365;47.464;18.976;2023-01-30T02:03:05;100248.38;;;-1.45;64.90
65666;BME280;52365;47.464;18.976;2023-01-30T02:03:46;100249.44;;;-1.53;65.27
65666;BME280;52365;47.464;18.976;2023-01-30T02:04:25;100237.03;;;-1.49;64.94
65666;BME280;52365;47.464;18.976;2023-01-30T02:05:21;100246.47;;;-1.48;65.10
65666;BME280;52365;47.464;18.976;2023-01-30T02:06:00;100247.53;;;-1.53;65.11
65666;BME280;52365;47.464;18.976;2023-01-30T02:06:39;100238.03;;;-1.57;65.39
65666;BME280;52365;47.464;18.976;2023-01-30T02:07:18;100237.37;;;-1.17;65.10
65666;BME280;52365;47.464;18.976;2023-01-30T02:08:23;100238.03;;;-1.23;64.38
65666;BME280;52365;47.464;18.976;2023-01-30T02:09:04;100235.16;;;-1.45;65.12
65666;BME280;52365;47.464;18.976;2023-01-30T02:09:42;100231.78;;;-1.42;64.96
65666;BME280;52365;47.464;18.976;2023-01-30T02:10:22;100231.69;;;-1.53;65.11
65666;BME280;52365;47.464;18.976;2023-01-30T02:11:59;100220.97;;;-1.63;65.81
65666;BME280;52365;47.464;18.976;2023-01-30T02:12:38;100229.63;;;-1.66;65.77
65666;BME280;52365;47.464;18.976;2023-01-30T02:13:15;100226.75;;;-1.54;65.59
65666;BME280;52365;47.464;18.976;2023-01-30T02:13:52;100222.06;;;-1.34;65.27
65666;BME280;52365;47.464;18.976;2023-01-30T02:14:30;100228.00;;;-1.44;64.93
65666;BME280;52365;47.464;18.976;2023-01-30T02:15:08;100226.47;;;-1.12;64.60
65666;BME280;52365;47.464;18.976;2023-01-30T02:15:44;100222.22;;;-1.20;64.21
65666;BME280;52365;47.464;18.976;2023-01-30T02:16:20;100220.50;;;-1.39;64.59
65666;BME280;52365;47.464;18.976;2023-01-30T02:16:56;100219.00;;;-1.40;64.81
65666;BME280;52365;47.464;18.976;2023-01-30T02:17:33;100213.72;;;-1.40;64.76
65666;BME280;52365;47.464;18.976;2023-01-30T02:18:09;100221.44;;;-1.58;65.06
65666;BME280;52365;47.464;18.976;2023-01-30T02:18:45;100220.31;;;-1.57;65.29
65666;BME280;52365;47.464;18.976;2023-01-30T02:20:45;100219.50;;;-1.61;65.51
65666;BME280;52365;47.464;18.976;2023-01-30T02:21:42;100214.84;;;-1.71;65.74
65666;BME280;52365;47.464;18.976;2023-01-30T02:23:41;100208.53;;;-1.93;66.85
65666;BME280;52365;47.464;18.976;2023-01-30T02:30:21;100206.75;;;-1.52;65.33
65666;BME280;52365;47.464;18.976;2023-01-30T02:31:38;100205.22;;;-1.56;65.34
65666;BME280;52365;47.464;18.976;2023-01-30T02:32:37;100199.34;;;-1.72;65.72
65666;BME280;52365;47.464;18.976;2023-01-30T02:33:37;100204.66;;;-1.39;65.34
65666;BME280;52365;47.464;18.976;2023-01-30T02:36:43;100208.50;;;-1.63;65.29
65666;BME280;52365;47.464;18.976;2023-01-30T02:38:27;100197.84;;;-1.40;65.58
65666;BME280;52365;47.464;18.976;2023-01-30T02:39:11;100193.03;;;-1.31;65.08
65666;BME280;52365;47.464;18.976;2023-01-30T02:41:12;100192.84;;;-1.48;65.25
65666;BME280;52365;47.464;18.976;2023-01-30T02:42:35;100183.16;;;-1.67;65.56
65666;BME280;52365;47.464;18.976;2023-01-30T02:44:48;100177.09;;;-0.97;64.14
65666;BME280;52365;47.464;18.976;2023-01-30T02:45:46;100174.31;;;-1.11;63.11
65666;BME280;52365;47.464;18.976;2023-01-30T02:47:13;100178.56;;;-1.03;62.96
65666;BME280;52365;47.464;18.976;2023-01-30T02:48:54;100174.41;;;-1.04;63.32
65666;BME280;52365;47.464;18.976;2023-01-30T02:49:40;100167.91;;;-1.10;63.23
65666;BME280;52365;47.464;18.976;2023-01-30T02:50:35;100175.31;;;-1.27;63.52
65666;BME280;52365;47.464;18.976;2023-01-30T02:51:22;100156.97;;;-1.09;63.58
65666;BME280;52365;47.464;18.976;2023-01-30T02:52:00;100167.53;;;-1.12;63.05
65666;BME280;52365;47.464;18.976;2023-01-30T02:52:38;100166.72;;;-1.16;63.11
65666;BME280;52365;47.464;18.976;2023-01-30T02:53:15;100170.03;;;-1.27;63.52
65666;BME280;52365;47.464;18.976;2023-01-30T02:53:52;100157.31;;;-1.10;63.47
65666;BME280;52365;47.464;18.976;2023-01-30T02:54:29;100160.47;;;-0.97;63.24
65666;BME280;52365;47.464;18.976;2023-01-30T02:55:08;100156.00;;;-0.90;62.87
65666;BME280;52365;47.464;18.976;2023-01-30T02:55:44;100164.41;;;-0.81;62.50
65666;BME280;52365;47.464;18.976;2023-01-30T02:56:21;100153.78;;;-0.88;62.41
65666;BME280;52365;47.464;18.976;2023-01-30T02:56:58;100153.31;;;-0.93;62.49
65666;BME280;52365;47.464;18.976;2023-01-30T02:57:34;100155.81;;;-0.67;62.13
65666;BME280;52365;47.464;18.976;2023-01-30T02:58:11;100155.75;;;-0.74;61.82
65666;BME280;52365;47.464;18.976;2023-01-30T02:58:49;100152.72;;;-0.76;61.78
65666;BME280;52365;47.464;18.976;2023-01-30T02:59:30;100145.91;;;-0.77;61.82
65666;BME280;52365;47.464;18.976;2023-01-30T03:00:07;100148.28;;;-1.06;62.37
65666;BME280;52365;47.464;18.976;2023-01-30T03:00:59;100148.13;;;-1.23;63.00
65666;BME280;52365;47.464;18.976;2023-01-30T03:02:28;100150.47;;;-1.18;63.33
65666;BME280;52365;47.464;18.976;2023-01-30T03:05:34;100143.28;;;-1.18;62.91
65666;BME280;52365;47.464;18.976;2023-01-30T03:10:01;100137.94;;;-0.81;61.41
65666;BME280;52365;47.464;18.976;2023-01-30T03:11:46;100146.63;;;-0.80;61.04
65666;BME280;52365;47.464;18.976;2023-01-30T03:13:15;100147.84;;;-1.15;61.65
65666;BME280;52365;47.464;18.976;2023-01-30T03:14:00;100146.91;;;-0.92;61.71
65666;BME280;52365;47.464;18.976;2023-01-30T03:15:04;100153.88;;;-1.14;62.30
65666;BME280;52365;47.464;18.976;2023-01-30T03:16:46;100149.47;;;-2.08;65.40
65666;BME280;52365;47.464;18.976;2023-01-30T03:17:24;100139.22;;;-2.13;66.18
65666;BME280;52365;47.464;18.976;2023-01-30T03:18:02;100146.28;;;-2.20;66.48
65666;BME280;52365;47.464;18.976;2023-01-30T03:18:40;100147.50;;;-2.14;66.46
65666;BME280;52365;47.464;18.976;2023-01-30T03:19:17;100147.72;;;-2.26;66.75
65666;BME280;52365;47.464;18.976;2023-01-30T03:19:54;100148.69;;;-2.08;66.76
65666;BME280;52365;47.464;18.976;2023-01-30T03:20:35;100148.66;;;-2.12;66.70
65666;BME280;52365;47.464;18.976;2023-01-30T03:21:12;100151.19;;;-1.92;66.34
65666;BME280;52365;47.464;18.976;2023-01-30T03:21:48;100144.97;;;-2.04;66.19
65666;BME280;52365;47.464;18.976;2023-01-30T03:22:24;100150.62;;;-2.05;66.64
65666;BME280;52365;47.464;18.976;2023-01-30T03:23:00;100145.75;;;-2.03;66.51
65666;BME280;52365;47.464;18.976;2023-01-30T03:23:36;100145.72;;;-1.73;66.01
65666;BME280;52365;47.464;18.976;2023-01-30T03:24:13;100148.47;;;-1.66;65.35
65666;BME280;52365;47.464;18.976;2023-01-30T03:24:51;100142.37;;;-1.70;65.35
65666;BME280;52365;47.464;18.976;2023-01-30T03:25:28;100145.84;;;-1.96;65.58
65666;BME280;52365;47.464;18.976;2023-01-30T03:26:07;100137.94;;;-1.62;65.25
65666;BME280;52365;47.464;18.976;2023-01-30T03:27:09;100145.22;;;-1.52;65.09
65666;BME280;52365;47.464;18.976;2023-01-30T03:27:44;100147.28;;;-1.68;65.00
65666;BME280;52365;47.464;18.976;2023-01-30T03:28:20;100138.38;;;-1.57;64.97
65666;BME280;52365;47.464;18.976;2023-01-30T03:28:57;100143.38;;;-1.48;64.42
65666;BME280;52365;47.464;18.976;2023-01-30T03:29:33;100145.97;;;-1.52;64.42
65666;BME280;52365;47.464;18.976;2023-01-30T03:30:10;100140.66;;;-1.55;64.53
65666;BME280;52365;47.464;18.976;2023-01-30T03:30:46;100142.25;;;-1.81;65.31
65666;BME280;52365;47.464;18.976;2023-01-30T03:31:22;100141.69;;;-1.63;65.59
65666;BME280;52365;47.464;18.976;2023-01-30T03:31:58;100139.59;;;-1.47;64.93
65666;BME280;52365;47.464;18.976;2023-01-30T03:32:34;100140.72;;;-1.48;64.70
65666;BME280;52365;47.464;18.976;2023-01-30T03:33:10;100142.56;;;-1.52;64.66
65666;BME280;52365;47.464;18.976;2023-01-30T03:33:47;100143.41;;;-1.44;64.84
65666;BME280;52365;47.464;18.976;2023-01-30T03:34:23;100146.78;;;-1.47;64.63
65666;BME280;52365;47.464;18.976;2023-01-30T03:34:59;100144.19;;;-1.44;64.74
65666;BME280;52365;47.464;18.976;2023-01-30T03:35:35;100143.00;;;-1.46;64.50
65666;BME280;52365;47.464;18.976;2023-01-30T03:36:12;100139.16;;;-1.53;64.75
65666;BME280;52365;47.464;18.976;2023-01-30T03:36:49;100143.53;;;-1.67;64.87
65666;BME280;52365;47.464;18.976;2023-01-30T03:37:26;100138.56;;;-1.72;65.37
65666;BME280;52365;47.464;18.976;2023-01-30T03:38:02;100135.81;;;-1.83;66.12
65666;BME280;52365;47.464;18.976;2023-01-30T03:38:38;100137.22;;;-1.93;66.51
65666;BME280;52365;47.464;18.976;2023-01-30T03:39:14;100138.19;;;-1.74;66.25
65666;BME280;52365;47.464;18.976;2023-01-30T03:39:50;100127.47;;;-1.52;65.78
65666;BME280;52365;47.464;18.976;2023-01-30T03:40:26;100125.34;;;-1.39;65.14
65666;BME280;52365;47.464;18.976;2023-01-30T03:41:03;100120.91;;;-1.28;64.70
65666;BME280;52365;47.464;18.976;2023-01-30T03:41:40;100119.78;;;-1.27;64.08
65666;BME280;52365;47.464;18.976;2023-01-30T03:42:16;100122.63;;;-1.46;64.40
65666;BME280;52365;47.464;18.976;2023-01-30T03:42:52;100123.03;;;-1.44;64.42
65666;BME280;52365;47.464;18.976;2023-01-30T03:43:28;100119.16;;;-1.54;64.37
65666;BME280;52365;47.464;18.976;2023-01-30T03:44:05;100124.03;;;-1.56;64.41
65666;BME280;52365;47.464;18.976;2023-01-30T03:44:41;100126.06;;;-1.42;64.41
65666;BME280;52365;47.464;18.976;2023-01-30T03:45:17;100125.03;;;-1.30;64.08
65666;BME280;52365;47.464;18.976;2023-01-30T03:45:53;100126.59;;;-1.25;63.83
65666;BME280;52365;47.464;18.976;2023-01-30T03:46:29;100129.50;;;-1.38;63.63
65666;BME280;52365;47.464;18.976;2023-01-30T03:47:05;100121.09;;;-1.47;63.86
65666;BME280;52365;47.464;18.976;2023-01-30T03:47:41;100120.06;;;-1.39;64.02
65666;BME280;52365;47.464;18.976;2023-01-30T03:48:17;100113.31;;;-1.33;63.88
65666;BME280;52365;47.464;18.976;2023-01-30T03:48:53;100119.84;;;-1.19;63.64
65666;BME280;52365;47.464;18.976;2023-01-30T03:49:29;100118.81;;;-1.08;63.19
65666;BME280;52365;47.464;18.976;2023-01-30T03:50:05;100119.25;;;-1.43;63.24